Time;durP1;ratioP1;P1;durP2;ratioP2;P2;SDS_P1;SDS_P2;PMS_P1;PMS_P2;Temp;Humidity;BMP_temperature;BMP_pressure;BME280_temperature;BME280_humidity;BME280_pressure;Samples;Min_cycle;Max_cycle;Signal;HPM_P1;HPM_P2
2022/12/26 00:01:48;;;;;;;6.60;4.07;;;11.40;99.90;;;;;;5074156;28;20189;-88
2022/12/26 00:04:15;;;;;;;4.87;4.20;;;11.40;99.90;;;;;;5099745;28;20186;-88
2022/12/26 00:06:41;;;;;;;6.37;4.00;;;11.40;99.90;;;;;;5081102;28;20209;-88
2022/12/26 00:09:07;;;;;;;4.20;3.90;;;11.40;99.90;;;;;;5076364;28;20209;-88
2022/12/26 00:11:33;;;;;;;5.07;4.17;;;11.50;99.90;;;;;;5091536;28;20181;-89
2022/12/26 00:14:11;;;;;;;5.03;4.10;;;11.60;99.60;;;;;;5087428;28;20253;-88
2022/12/26 00:16:40;;;;;;;3.87;3.57;;;11.60;99.70;;;;;;5099461;28;20691;-89
2022/12/26 00:19:07;;;;;;;4.33;3.93;;;11.60;99.40;;;;;;5079062;28;20228;-88
2022/12/26 00:21:33;;;;;;;5.17;4.40;;;11.60;99.90;;;;;;5071784;28;20193;-88
2022/12/26 00:24:00;;;;;;;4.77;3.93;;;11.60;99.90;;;;;;5069043;28;20194;-88
2022/12/26 00:26:28;;;;;;;4.40;4.00;;;11.60;99.90;;;;;;5075552;28;20236;-88
2022/12/26 00:28:56;;;;;;;4.57;4.27;;;11.50;99.90;;;;;;5097631;28;20206;-88
2022/12/26 00:31:25;;;;;;;4.47;4.07;;;11.60;99.90;;;;;;5098052;28;20745;-88
2022/12/26 00:33:51;;;;;;;4.37;3.97;;;11.70;99.50;;;;;;5091763;28;20182;-88
2022/12/26 00:36:27;;;;;;;4.70;4.30;;;11.80;99.20;;;;;;5073500;28;20758;-88
2022/12/26 00:38:53;;;;;;;4.40;4.00;;;11.80;99.00;;;;;;5091432;28;20177;-88
2022/12/26 00:41:20;;;;;;;4.17;3.80;;;11.70;99.70;;;;;;5107184;28;20208;-88
2022/12/26 00:43:46;;;;;;;4.27;3.90;;;11.70;99.40;;;;;;5075998;28;20192;-88
2022/12/26 00:46:13;;;;;;;5.67;4.30;;;11.80;99.30;;;;;;5091742;28;20292;-88
2022/12/26 00:48:39;;;;;;;4.03;3.63;;;11.80;99.50;;;;;;5074116;28;20221;-88
2022/12/26 00:51:05;;;;;;;4.40;4.00;;;11.80;98.80;;;;;;5092927;28;20212;-88
2022/12/26 00:53:32;;;;;;;4.40;3.63;;;11.90;99.00;;;;;;5089685;28;20581;-88
2022/12/26 00:55:58;;;;;;;4.40;4.00;;;11.80;99.30;;;;;;5073765;28;20218;-89
2022/12/26 00:58:24;;;;;;;3.97;3.47;;;11.90;98.40;;;;;;5094401;28;20216;-89
2022/12/26 01:00:50;;;;;;;4.63;3.40;;;11.90;98.80;;;;;;5092853;28;20199;-89
2022/12/26 01:03:17;;;;;;;3.80;3.50;;;11.90;98.20;;;;;;5087694;28;20241;-89
2022/12/26 01:05:45;;;;;;;4.03;3.73;;;11.90;99.10;;;;;;5072189;28;20256;-89
2022/12/26 01:08:11;;;;;;;3.77;3.47;;;11.90;99.30;;;;;;5095345;28;20190;-89
2022/12/26 01:10:40;;;;;;;4.23;3.93;;;12.00;98.10;;;;;;5095376;28;20275;-88
2022/12/26 01:13:06;;;;;;;5.03;4.20;;;12.30;97.80;;;;;;5093814;28;20187;-88
2022/12/26 01:15:32;;;;;;;3.73;3.43;;;12.20;96.60;;;;;;5120088;28;20218;-88
2022/12/26 01:17:59;;;;;;;3.90;3.60;;;12.30;96.80;;;;;;5092830;28;20273;-88
2022/12/26 01:20:25;;;;;;;3.87;3.57;;;12.30;96.80;;;;;;5088249;28;20190;-89
2022/12/26 01:22:51;;;;;;;3.93;3.63;;;12.30;97.30;;;;;;5090920;28;20202;-89
2022/12/26 01:25:17;;;;;;;3.73;3.43;;;12.20;97.30;;;;;;5074290;28;20207;-89
2022/12/26 01:27:43;;;;;;;3.60;3.30;;;12.30;97.30;;;;;;5095281;28;20216;-89
2022/12/26 01:30:10;;;;;;;4.30;3.90;;;12.30;96.70;;;;;;5093726;28;20213;-89
2022/12/26 01:32:39;;;;;;;3.97;3.40;;;12.20;96.90;;;;;;5098184;28;20190;-89
2022/12/26 01:35:05;;;;;;;3.67;3.37;;;12.30;96.20;;;;;;5108191;28;20205;-89
2022/12/26 01:37:31;;;;;;;3.80;3.50;;;12.20;97.20;;;;;;5074933;28;20205;-89
2022/12/26 01:39:58;;;;;;;3.80;3.50;;;12.20;97.10;;;;;;5096592;28;20463;-88
2022/12/26 01:42:25;;;;;;;4.37;3.90;;;12.30;95.80;;;;;;5090689;28;20188;-89
2022/12/26 01:45:06;;;;;;;4.50;3.57;;;12.30;96.30;;;;;;5090282;28;20251;-89
2022/12/26 01:48:00;;;;;;;3.83;3.53;;;12.20;96.90;;;;;;5101145;28;20314;-89
2022/12/26 01:50:40;;;;;;;4.07;3.67;;;12.40;94.60;;;;;;5070083;28;20225;-89
2022/12/26 01:53:20;;;;;;;4.67;3.90;;;12.40;95.20;;;;;;5079187;28;20190;-89
2022/12/26 01:55:51;;;;;;;4.13;3.33;;;12.50;94.20;;;;;;5084577;28;21020;-89
2022/12/26 01:58:24;;;;;;;3.90;3.60;;;12.60;93.60;;;;;;5091309;28;20179;-89
2022/12/26 02:00:50;;;;;;;3.83;3.53;;;12.60;93.90;;;;;;5086703;28;20195;-89
2022/12/26 02:06:02;;;;;;;4.33;3.87;;;12.60;94.30;;;;;;5087982;28;20236;-89
2022/12/26 02:08:33;;;;;;;4.70;4.10;;;12.50;94.60;;;;;;5093079;28;20202;-88
2022/12/26 02:11:19;;;;;;;5.47;3.70;;;12.50;94.90;;;;;;5081979;28;20209;-89
2022/12/26 02:13:45;;;;;;;3.80;3.50;;;12.40;95.50;;;;;;5091494;28;20238;-89
2022/12/26 02:16:13;;;;;;;3.60;3.30;;;12.30;95.80;;;;;;5086234;28;20236;-89
2022/12/26 02:18:40;;;;;;;4.37;3.87;;;12.30;95.40;;;;;;5097121;28;20253;-89
2022/12/26 02:21:20;;;;;;;4.67;3.87;;;12.30;95.50;;;;;;5070411;28;20274;-88
2022/12/26 02:24:04;;;;;;;4.10;3.70;;;12.30;95.80;;;;;;5093827;28;20209;-88
2022/12/26 02:27:00;;;;;;;3.70;3.40;;;12.40;95.00;;;;;;5089812;28;20218;-88
2022/12/26 02:29:38;;;;;;;4.20;3.50;;;12.50;93.70;;;;;;5098903;28;21054;-89
2022/12/26 02:33:01;;;;;;;4.03;3.63;;;12.60;93.60;;;;;;5085556;28;20197;-89
2022/12/26 02:36:14;;;;;;;4.13;3.50;;;12.60;93.70;;;;;;5006939;28;20296;-89
2022/12/26 02:38:54;;;;;;;4.07;3.70;;;12.50;94.60;;;;;;4996301;28;20704;-89
2022/12/26 02:41:58;;;;;;;5.03;3.80;;;12.50;94.40;;;;;;5086979;28;20269;-89
2022/12/26 02:47:40;;;;;;;4.70;3.60;;;12.70;94.40;;;;;;5099007;28;20215;-89
2022/12/26 03:14:33;;;;;;;3.77;3.47;;;12.60;95.50;;;;;;5088563;28;20235;-89
2022/12/26 03:17:18;;;;;;;4.30;3.63;;;12.60;95.40;;;;;;5060464;28;20244;-89
2022/12/26 03:19:59;;;;;;;4.07;3.67;;;12.60;95.20;;;;;;5088277;28;20178;-88
2022/12/26 03:22:31;;;;;;;4.23;3.83;;;12.60;95.80;;;;;;5085537;28;20182;-88
2022/12/26 03:27:46;;;;;;;4.37;3.97;;;12.40;96.30;;;;;;5097678;28;20212;-89
2022/12/26 03:32:57;;;;;;;3.80;3.50;;;12.50;96.40;;;;;;5093149;28;20190;-88
2022/12/26 03:35:24;;;;;;;3.93;3.63;;;12.30;97.10;;;;;;5091673;28;20210;-88
2022/12/26 03:38:02;;;;;;;4.07;3.67;;;12.50;95.70;;;;;;5083058;28;20218;-88
2022/12/26 04:19:25;;;;;;;4.40;3.47;;;12.70;92.90;;;;;;5102288;28;20223;-89
2022/12/26 04:44:54;;;;;;;3.33;3.03;;;12.90;92.00;;;;;;5086449;28;20259;-89
2022/12/26 04:47:21;;;;;;;3.33;3.03;;;13.00;91.10;;;;;;5091342;28;20214;-88
2022/12/26 04:55:16;;;;;;;3.90;3.37;;;13.00;92.20;;;;;;5092137;28;20255;-88
2022/12/26 04:57:42;;;;;;;4.07;3.67;;;12.90;93.60;;;;;;5086927;28;20233;-88
2022/12/26 05:00:14;;;;;;;3.50;3.20;;;12.90;95.80;;;;;;5095938;28;20191;-89
2022/12/26 05:11:09;;;;;;;4.57;4.13;;;12.20;99.90;;;;;;5090515;28;20215;-91
2022/12/26 05:13:37;;;;;;;4.03;3.60;;;12.10;99.90;;;;;;5091681;28;20182;-91
2022/12/26 05:36:29;;;;;;;4.10;3.70;;;11.80;99.90;;;;;;5098431;28;20239;-87
2022/12/26 05:38:59;;;;;;;5.17;3.93;;;11.90;99.90;;;;;;5094667;28;20250;-89
2022/12/26 05:41:25;;;;;;;3.90;3.60;;;12.10;99.90;;;;;;5106340;28;20197;-87
2022/12/26 05:44:05;;;;;;;3.83;3.53;;;12.20;99.90;;;;;;5097958;28;20228;-87
2022/12/26 05:46:38;;;;;;;4.97;3.67;;;12.10;99.90;;;;;;5096493;28;20185;-87
2022/12/26 05:49:16;;;;;;;4.00;3.70;;;12.00;99.90;;;;;;5098701;28;20243;-87
2022/12/26 05:51:49;;;;;;;3.47;3.27;;;12.10;99.90;;;;;;5094429;28;20190;-85
2022/12/26 05:54:31;;;;;;;4.23;3.80;;;12.00;99.90;;;;;;5098227;28;20672;-88
2022/12/26 06:00:02;;;;;;;3.93;3.63;;;11.90;99.90;;;;;;5085127;28;20219;-87
2022/12/26 06:02:36;;;;;;;4.17;3.80;;;12.00;99.90;;;;;;5089209;28;20282;-86
2022/12/26 06:08:20;;;;;;;3.77;3.47;;;12.10;99.90;;;;;;5100766;28;20200;-87
2022/12/26 06:10:53;;;;;;;4.10;3.70;;;12.20;99.90;;;;;;5096845;28;20226;-87
2022/12/26 06:13:27;;;;;;;3.80;3.50;;;12.40;99.90;;;;;;5097067;28;20214;-87
2022/12/26 06:15:57;;;;;;;4.20;3.77;;;12.40;99.90;;;;;;5091195;28;20257;-87
2022/12/26 06:18:23;;;;;;;6.40;3.90;;;12.40;99.90;;;;;;5095141;28;20202;-87
2022/12/26 06:21:00;;;;;;;4.07;3.67;;;12.50;99.90;;;;;;5102792;28;20287;-90
2022/12/26 06:23:27;;;;;;;4.20;3.80;;;12.40;99.90;;;;;;5107448;28;20190;-91
2022/12/26 06:26:05;;;;;;;4.87;3.80;;;12.30;99.90;;;;;;5107603;28;20319;-92
2022/12/26 06:35:23;;;;;;;4.17;3.77;;;12.30;99.90;;;;;;5071572;28;20197;-89
2022/12/26 06:37:56;;;;;;;5.90;4.17;;;12.20;99.90;;;;;;5091179;28;20189;-88
2022/12/26 06:40:22;;;;;;;5.30;4.03;;;12.10;99.90;;;;;;5083705;28;20210;-89
2022/12/26 06:43:35;;;;;;;5.77;4.23;;;11.90;99.90;;;;;;5088528;28;20202;-87
2022/12/26 06:46:39;;;;;;;9.73;7.23;;;11.80;99.90;;;;;;5092548;28;20201;-89
2022/12/26 06:49:25;;;;;;;4.70;4.07;;;11.70;99.90;;;;;;5100197;28;20221;-88
2022/12/26 06:51:58;;;;;;;4.73;4.13;;;11.60;99.90;;;;;;5099248;28;20202;-89
2022/12/26 06:57:42;;;;;;;5.00;4.60;;;11.40;99.90;;;;;;5089132;28;20195;-87
2022/12/26 07:00:33;;;;;;;5.00;4.50;;;11.40;99.90;;;;;;5094118;28;20228;-90
2022/12/26 07:03:29;;;;;;;;;;;;;;;;;;;;;
2022/12/26 07:28:01;;;;;;;;;;;;;;;;;;;;;
2022/12/26 07:36:29;;;;;;;4.73;4.33;;;11.30;99.90;;;;;;5625957;22;20229;-87
2022/12/26 07:39:03;;;;;;;5.53;5.03;;;11.20;99.90;;;;;;5028601;28;20356;-88
2022/12/26 07:44:25;;;;;;;6.30;4.83;;;11.30;99.90;;;;;;5083468;28;20190;-91
2022/12/26 07:46:51;;;;;;;5.50;5.00;;;11.20;99.90;;;;;;5086150;28;20204;-87
2022/12/26 07:49:17;;;;;;;6.30;5.40;;;11.20;99.90;;;;;;5084020;28;20296;-88
2022/12/26 07:51:43;;;;;;;6.27;5.30;;;11.10;99.90;;;;;;5081199;28;20282;-88
2022/12/26 07:54:09;;;;;;;6.10;4.57;;;11.10;99.90;;;;;;5081779;28;20179;-88
2022/12/26 07:56:35;;;;;;;5.10;4.70;;;11.10;99.90;;;;;;5089521;28;20194;-88
2022/12/26 07:59:01;;;;;;;5.67;5.17;;;11.00;99.90;;;;;;5080172;28;20293;-87
2022/12/26 08:01:27;;;;;;;21.40;20.00;;;11.00;99.90;;;;;;5080041;28;20533;-89
2022/12/26 08:03:53;;;;;;;5.53;5.03;;;11.00;99.90;;;;;;5083641;28;20185;-89
2022/12/26 08:06:25;;;;;;;6.43;5.70;;;11.10;99.90;;;;;;5081894;28;20228;-89
2022/12/26 08:08:53;;;;;;;4.97;4.57;;;11.00;99.90;;;;;;5080228;28;20195;-89
2022/12/26 08:11:22;;;;;;;6.10;5.10;;;11.00;99.90;;;;;;5077674;28;20197;-87
2022/12/26 08:13:49;;;;;;;6.07;4.60;;;11.10;99.90;;;;;;5085050;28;20180;-87
2022/12/26 08:16:15;;;;;;;4.60;4.20;;;11.10;99.90;;;;;;5095715;28;20180;-87
2022/12/26 08:18:42;;;;;;;6.63;4.40;;;11.20;99.90;;;;;;5088402;28;20246;-90
2022/12/26 08:21:08;;;;;;;6.37;5.10;;;11.10;99.90;;;;;;5088794;28;20191;-88
2022/12/26 08:23:34;;;;;;;5.80;4.93;;;11.20;99.90;;;;;;5090908;28;20182;-91
2022/12/26 08:26:09;;;;;;;5.50;4.83;;;11.20;99.90;;;;;;5082614;28;20182;-88
2022/12/26 08:28:35;;;;;;;5.03;4.53;;;11.30;99.90;;;;;;5090479;28;20194;-88
2022/12/26 08:31:05;;;;;;;6.13;4.90;;;11.30;99.90;;;;;;5084530;28;20232;-90
2022/12/26 08:33:31;;;;;;;6.80;5.30;;;11.30;99.90;;;;;;5091006;28;20608;-86
2022/12/26 08:36:04;;;;;;;5.73;5.10;;;11.20;99.90;;;;;;5086603;28;20187;-87
2022/12/26 08:38:30;;;;;;;7.77;6.43;;;11.30;99.90;;;;;;5082716;28;20195;-88
2022/12/26 08:40:56;;;;;;;5.47;4.97;;;11.30;99.90;;;;;;5084827;28;20219;-91
2022/12/26 08:43:23;;;;;;;4.43;4.03;;;11.20;99.90;;;;;;5086787;28;20230;-89
2022/12/26 08:46:04;;;;;;;6.93;5.30;;;11.20;99.90;;;;;;5084363;28;20206;-89
2022/12/26 08:48:30;;;;;;;5.40;4.73;;;11.20;99.90;;;;;;5090628;28;20183;-90
2022/12/26 08:51:05;;;;;;;5.53;4.43;;;11.20;99.90;;;;;;5089539;28;20194;-87
2022/12/26 08:53:35;;;;;;;4.97;4.47;;;11.20;99.90;;;;;;5090338;28;20178;-89
2022/12/26 08:56:29;;;;;;;5.10;4.60;;;11.20;99.90;;;;;;5093267;28;20199;-87
2022/12/26 09:02:21;;;;;;;;;;;;;;;;;;;;;
2022/12/26 09:04:50;;;;;;;4.53;3.93;;;11.20;99.90;;;;;;5086615;28;20253;-88
2022/12/26 09:15:34;;;;;;;4.30;3.80;;;11.10;99.90;;;;;;5166119;22;20277;-86
2022/12/26 09:18:00;;;;;;;4.47;4.07;;;11.00;99.90;;;;;;5088728;28;20263;-87
2022/12/26 09:20:26;;;;;;;4.30;3.90;;;10.90;99.90;;;;;;5104984;28;20203;-87
2022/12/26 09:22:51;;;;;;;4.73;4.10;;;10.90;99.90;;;;;;5114013;28;20200;-85
2022/12/26 09:25:19;;;;;;;5.30;3.67;;;10.80;99.90;;;;;;5083294;28;20192;-87
2022/12/26 09:28:12;;;;;;;4.43;3.83;;;10.80;99.90;;;;;;5101133;28;20184;-88
2022/12/26 09:33:10;;;;;;;4.20;3.80;;;10.80;99.90;;;;;;5083779;28;20213;-89
2022/12/26 09:35:46;;;;;;;4.00;3.70;;;10.80;99.90;;;;;;5089271;28;20248;-90
2022/12/26 09:38:12;;;;;;;4.00;3.70;;;10.80;99.90;;;;;;5087975;28;20188;-88
2022/12/26 09:41:11;;;;;;;3.93;3.53;;;10.90;99.90;;;;;;5105479;28;20210;-89
2022/12/26 09:43:59;;;;;;;4.37;3.97;;;10.90;99.90;;;;;;5081713;28;20197;-88
2022/12/26 09:46:47;;;;;;;4.67;4.10;;;10.90;99.90;;;;;;5081043;28;20199;-89
2022/12/26 09:49:29;;;;;;;5.60;5.10;;;10.80;99.90;;;;;;5087110;28;20213;-91
2022/12/26 09:52:21;;;;;;;4.83;4.50;;;10.80;99.90;;;;;;5094102;28;20189;-89
2022/12/26 10:09:24;;;;;;;6.00;5.50;;;10.90;99.90;;;;;;5251549;22;20264;-92
2022/12/26 10:12:31;;;;;;;6.57;5.93;;;10.90;99.90;;;;;;5118635;28;20188;-90
2022/12/26 10:15:27;;;;;;;6.13;5.53;;;10.80;99.90;;;;;;5106317;28;20170;-89
2022/12/26 10:18:38;;;;;;;7.30;6.53;;;10.80;99.90;;;;;;5109593;28;20211;-89
2022/12/26 10:21:36;;;;;;;6.67;6.10;;;10.80;99.90;;;;;;5102706;28;20247;-89
2022/12/26 10:24:34;;;;;;;;;;;;;;;;;;;;;
2022/12/26 10:33:10;;;;;;;7.20;6.60;;;10.90;99.90;;;;;;5982658;22;20253;-87
2022/12/26 10:36:02;;;;;;;7.13;6.47;;;10.80;99.90;;;;;;5064627;28;20185;-88
2022/12/26 10:38:34;;;;;;;7.93;6.77;;;10.80;99.90;;;;;;5070445;28;20182;-88
2022/12/26 10:41:13;;;;;;;7.70;6.97;;;10.80;99.90;;;;;;5042589;28;20197;-88
2022/12/26 10:43:43;;;;;;;8.60;7.00;;;10.90;99.90;;;;;;5052048;28;20184;-89
2022/12/26 10:46:44;;;;;;;7.77;7.07;;;10.90;99.90;;;;;;5062841;28;20193;-90
2022/12/26 10:49:12;;;;;;;7.33;6.67;;;10.90;99.90;;;;;;5062109;28;20196;-89
2022/12/26 10:51:38;;;;;;;7.23;6.53;;;10.90;99.90;;;;;;5064993;28;20189;-88
2022/12/26 10:54:16;;;;;;;6.93;6.33;;;10.90;99.90;;;;;;5053777;28;20282;-87
2022/12/26 10:56:44;;;;;;;7.60;6.87;;;11.00;99.90;;;;;;5058068;28;20214;-88
2022/12/26 10:59:22;;;;;;;6.93;6.33;;;10.90;99.90;;;;;;5052854;28;20272;-87
2022/12/26 11:01:49;;;;;;;7.27;6.57;;;11.00;99.90;;;;;;5051760;28;20197;-87
2022/12/26 11:04:18;;;;;;;7.23;6.53;;;10.90;99.90;;;;;;5058371;28;20244;-88
2022/12/26 11:06:46;;;;;;;7.20;6.50;;;10.90;99.90;;;;;;5066556;28;20176;-90
2022/12/26 11:09:41;;;;;;;6.50;5.83;;;11.00;99.90;;;;;;5049363;28;20292;-88
2022/12/26 11:12:24;;;;;;;6.57;5.70;;;11.10;99.90;;;;;;5027166;28;20259;-87
2022/12/26 11:14:59;;;;;;;5.90;5.40;;;11.10;99.90;;;;;;5064600;28;20197;-88
2022/12/26 11:17:29;;;;;;;8.10;6.10;;;11.20;99.90;;;;;;5057950;28;20180;-87
2022/12/26 11:20:15;;;;;;;5.60;5.10;;;11.20;99.90;;;;;;5060582;28;20213;-86
2022/12/26 11:22:43;;;;;;;5.20;4.80;;;11.10;99.90;;;;;;5048505;28;20196;-88
2022/12/26 11:25:08;;;;;;;5.27;4.80;;;11.20;99.90;;;;;;5056587;28;20212;-87
2022/12/26 11:27:37;;;;;;;4.77;4.37;;;11.20;99.90;;;;;;5054964;28;20187;-90
2022/12/26 11:30:15;;;;;;;3.90;3.60;;;11.20;99.90;;;;;;5041782;28;20247;-87
2022/12/26 11:32:47;;;;;;;4.57;4.13;;;11.20;99.90;;;;;;5074010;28;20328;-88
2022/12/26 11:35:23;;;;;;;3.77;3.20;;;11.20;99.90;;;;;;5065814;28;20638;-90
2022/12/26 11:37:54;;;;;;;4.10;3.67;;;11.20;99.90;;;;;;5063716;28;20393;-90
2022/12/26 11:40:26;;;;;;;3.93;3.63;;;11.20;99.90;;;;;;5065827;28;20202;-87
2022/12/26 11:42:58;;;;;;;4.17;3.77;;;11.20;99.90;;;;;;5059483;28;20180;-89
2022/12/26 11:45:30;;;;;;;3.80;3.47;;;11.20;99.90;;;;;;5050500;28;20181;-86
2022/12/26 11:47:58;;;;;;;3.93;3.23;;;11.20;99.90;;;;;;5076136;28;20217;-92
2022/12/26 11:50:28;;;;;;;3.50;3.20;;;11.20;99.90;;;;;;5057947;28;20270;-90
2022/12/26 11:52:56;;;;;;;3.10;2.80;;;11.20;99.90;;;;;;5050659;28;20190;-94
2022/12/26 11:55:25;;;;;;;2.87;2.67;;;11.30;99.90;;;;;;5067489;28;20193;-87
2022/12/26 11:58:16;;;;;;;3.50;3.20;;;11.30;99.90;;;;;;5044147;28;20195;-88
2022/12/26 12:00:49;;;;;;;2.47;2.27;;;11.30;99.90;;;;;;5030042;28;20266;-90
2022/12/26 12:03:38;;;;;;;2.80;2.60;;;11.20;99.90;;;;;;5044431;28;20172;-87
2022/12/26 12:06:25;;;;;;;3.97;2.43;;;11.30;99.90;;;;;;5061426;28;20174;-88
2022/12/26 12:09:06;;;;;;;2.43;2.23;;;11.30;99.90;;;;;;5040693;28;20178;-87
2022/12/26 12:11:50;;;;;;;2.70;2.50;;;11.30;99.90;;;;;;5059234;28;20219;-89
2022/12/26 12:14:44;;;;;;;4.77;2.67;;;11.30;99.90;;;;;;5060117;28;20176;-90
2022/12/26 12:17:28;;;;;;;2.37;2.27;;;11.40;99.90;;;;;;5059071;28;20726;-89
2022/12/26 12:20:29;;;;;;;2.50;2.30;;;11.40;99.90;;;;;;5039486;28;20201;-89
2022/12/26 12:23:25;;;;;;;2.47;2.27;;;11.30;99.90;;;;;;5051194;28;20186;-89
2022/12/26 12:26:16;;;;;;;2.63;2.40;;;11.30;99.90;;;;;;5058619;28;20188;-87
2022/12/26 12:29:09;;;;;;;3.40;2.63;;;11.10;99.90;;;;;;5068933;28;20181;-88
2022/12/26 12:31:44;;;;;;;2.63;2.43;;;11.10;99.90;;;;;;5052113;28;20201;-86
2022/12/26 12:34:47;;;;;;;2.43;2.23;;;11.10;99.90;;;;;;5046313;28;20226;-88
2022/12/26 12:37:34;;;;;;;2.57;2.37;;;11.10;99.90;;;;;;5047714;28;20195;-86
2022/12/26 12:40:19;;;;;;;2.70;2.50;;;10.90;99.90;;;;;;5066128;28;20204;-89
2022/12/26 12:43:05;;;;;;;2.60;2.40;;;10.90;99.90;;;;;;5050882;28;20184;-88
2022/12/26 12:46:09;;;;;;;3.03;2.40;;;10.70;99.90;;;;;;5047543;28;20197;-89
2022/12/26 12:49:09;;;;;;;2.53;2.33;;;10.70;99.90;;;;;;5043909;28;20193;-90
2022/12/26 12:51:50;;;;;;;2.97;2.20;;;10.60;99.90;;;;;;5045445;28;20204;-89
2022/12/26 12:54:37;;;;;;;2.40;2.20;;;10.70;99.90;;;;;;5053851;28;20184;-89
2022/12/26 12:57:23;;;;;;;2.90;2.53;;;10.70;99.90;;;;;;5064756;28;20177;-87
2022/12/26 13:00:18;;;;;;;2.80;2.60;;;10.80;99.90;;;;;;5053322;28;20233;-89
2022/12/26 13:03:01;;;;;;;3.70;2.60;;;10.80;99.90;;;;;;5062748;28;20192;-89
2022/12/26 13:05:36;;;;;;;3.00;2.70;;;10.80;99.90;;;;;;5064794;28;20211;-88
2022/12/26 13:08:09;;;;;;;2.63;2.43;;;10.90;99.90;;;;;;5065259;28;20243;-88
2022/12/26 13:10:43;;;;;;;4.33;2.70;;;10.90;99.90;;;;;;5064001;28;20206;-86
2022/12/26 13:13:26;;;;;;;2.80;2.60;;;10.90;99.90;;;;;;5062143;28;20271;-88
2022/12/26 13:15:56;;;;;;;3.07;2.37;;;10.90;99.90;;;;;;5050311;28;20184;-87
2022/12/26 13:18:30;;;;;;;4.17;2.73;;;10.80;99.90;;;;;;5068624;28;20197;-88
2022/12/26 13:21:07;;;;;;;2.80;2.60;;;10.70;99.90;;;;;;5054408;28;20223;-87
2022/12/26 13:26:37;;;;;;;3.27;2.57;;;10.70;99.90;;;;;;5070639;28;20219;-86
2022/12/26 13:29:21;;;;;;;3.43;2.70;;;10.70;99.90;;;;;;5069869;28;20216;-87
2022/12/26 13:31:47;;;;;;;2.60;2.40;;;10.80;99.90;;;;;;5058376;28;20190;-88
2022/12/26 13:34:18;;;;;;;3.00;2.70;;;10.80;99.90;;;;;;5045794;28;20213;-88
2022/12/26 13:36:49;;;;;;;3.43;2.60;;;10.70;99.90;;;;;;5054603;28;20276;-88
2022/12/26 13:39:24;;;;;;;3.10;2.60;;;10.90;99.90;;;;;;5070084;28;20205;-88
2022/12/26 13:45:34;;;;;;;2.80;2.40;;;10.80;99.90;;;;;;5064148;28;20383;-87
2022/12/26 13:48:00;;;;;;;4.03;2.70;;;10.90;99.90;;;;;;5060958;28;20258;-90
2022/12/26 13:51:01;;;;;;;3.60;3.30;;;10.90;99.90;;;;;;5043110;28;20218;-88
2022/12/26 13:54:23;;;;;;;3.10;2.80;;;10.90;99.90;;;;;;5050592;28;20210;-86
2022/12/26 13:57:16;;;;;;;2.60;2.40;;;10.90;99.90;;;;;;4979525;28;20255;-87
2022/12/26 14:00:23;;;;;;;3.07;2.70;;;10.90;99.90;;;;;;5029300;28;20217;-87
2022/12/26 14:03:29;;;;;;;2.83;2.63;;;11.00;99.90;;;;;;5030979;28;20231;-87
2022/12/26 14:06:48;;;;;;;3.00;2.80;;;11.00;99.90;;;;;;5047423;28;20264;-87
2022/12/26 14:09:27;;;;;;;3.07;2.80;;;11.00;99.90;;;;;;5039431;28;20205;-87
2022/12/26 14:12:22;;;;;;;3.73;3.00;;;10.80;99.90;;;;;;5046292;28;20193;-90
2022/12/26 14:15:02;;;;;;;4.63;2.83;;;10.80;99.90;;;;;;5070769;28;20204;-87
2022/12/26 14:17:38;;;;;;;3.13;2.93;;;10.80;99.90;;;;;;5072666;28;20181;-87
2022/12/26 14:20:41;;;;;;;3.13;2.83;;;10.80;99.90;;;;;;5063768;28;20603;-87
2022/12/26 14:23:25;;;;;;;3.17;2.93;;;10.90;99.90;;;;;;5047299;28;20188;-87
2022/12/26 14:26:15;;;;;;;3.20;2.77;;;10.80;99.90;;;;;;5066463;28;20209;-87
2022/12/26 14:28:53;;;;;;;3.53;3.20;;;10.80;99.90;;;;;;5054249;28;20188;-87
2022/12/26 14:31:34;;;;;;;3.53;3.23;;;10.70;99.90;;;;;;5064110;28;20217;-90
2022/12/26 14:34:18;;;;;;;3.93;3.63;;;10.70;99.90;;;;;;5049162;28;20231;-88
2022/12/26 14:36:53;;;;;;;4.07;3.50;;;10.70;99.90;;;;;;5062194;28;20180;-86
2022/12/26 14:39:39;;;;;;;4.43;4.03;;;10.60;99.90;;;;;;5056952;28;20200;-88
2022/12/26 14:44:58;;;;;;;3.73;3.33;;;10.60;99.90;;;;;;5063028;28;20339;-89
2022/12/26 14:47:39;;;;;;;3.87;3.20;;;10.60;99.90;;;;;;5057981;28;20186;-87
2022/12/26 14:50:34;;;;;;;4.93;3.27;;;10.70;99.90;;;;;;5066016;28;20217;-86
2022/12/26 14:53:21;;;;;;;2.93;2.73;;;10.60;99.90;;;;;;5063460;28;20173;-88
2022/12/26 14:55:51;;;;;;;2.80;2.60;;;10.60;99.90;;;;;;5051045;28;20200;-86
2022/12/26 14:58:48;;;;;;;2.90;2.70;;;10.50;99.90;;;;;;5063335;28;20180;-89
2022/12/26 15:01:17;;;;;;;2.43;2.23;;;10.60;99.90;;;;;;5056598;28;20216;-86
2022/12/26 15:03:48;;;;;;;2.80;2.60;;;10.70;99.90;;;;;;5058804;28;20256;-87
2022/12/26 15:06:20;;;;;;;2.80;2.60;;;10.70;99.90;;;;;;5057373;28;20190;-87
2022/12/26 15:09:01;;;;;;;2.87;2.67;;;10.60;99.90;;;;;;5060531;28;20180;-89
2022/12/26 15:12:01;;;;;;;3.30;3.00;;;10.70;99.90;;;;;;5056429;28;20717;-86
2022/12/26 15:14:35;;;;;;;3.30;3.03;;;10.60;99.90;;;;;;5058326;28;20275;-86
2022/12/26 15:17:13;;;;;;;3.03;2.73;;;10.50;99.90;;;;;;5063767;28;20176;-88
2022/12/26 15:20:07;;;;;;;3.43;3.00;;;10.40;99.90;;;;;;5064248;28;20232;-87
2022/12/26 15:23:10;;;;;;;3.47;2.80;;;10.50;99.90;;;;;;5054661;28;20188;-89
2022/12/26 15:26:00;;;;;;;4.03;3.20;;;10.50;99.90;;;;;;5063117;28;20176;-87
2022/12/26 15:29:03;;;;;;;3.20;2.90;;;10.60;99.90;;;;;;5043156;28;20191;-87
2022/12/26 15:32:07;;;;;;;3.30;2.90;;;10.50;99.90;;;;;;5055474;28;20208;-87
2022/12/26 15:34:51;;;;;;;3.20;2.90;;;10.50;99.90;;;;;;5036687;28;20208;-88
2022/12/26 15:37:27;;;;;;;3.43;3.10;;;10.50;99.90;;;;;;5055571;28;20185;-89
2022/12/26 15:40:09;;;;;;;3.60;2.87;;;10.50;99.90;;;;;;5057696;28;20209;-87
2022/12/26 15:43:08;;;;;;;2.77;2.57;;;10.50;99.90;;;;;;5046970;28;20226;-87
2022/12/26 15:45:53;;;;;;;3.27;2.90;;;10.50;99.90;;;;;;5055385;28;20180;-87
2022/12/26 15:48:31;;;;;;;2.70;2.50;;;10.50;99.90;;;;;;5059013;28;20245;-88
2022/12/26 15:51:34;;;;;;;3.80;2.83;;;10.60;99.90;;;;;;5056277;28;20211;-88
2022/12/26 15:54:38;;;;;;;2.67;2.43;;;10.60;99.90;;;;;;5070731;28;20219;-87
2022/12/26 15:57:16;;;;;;;3.47;3.13;;;10.60;99.90;;;;;;5058517;28;20176;-86
2022/12/26 15:59:50;;;;;;;3.30;3.10;;;10.50;99.90;;;;;;5053107;28;20192;-88
2022/12/26 16:02:26;;;;;;;3.43;3.13;;;10.50;99.90;;;;;;5062333;28;20649;-87
2022/12/26 16:04:57;;;;;;;3.57;3.27;;;10.50;99.90;;;;;;5062354;28;20192;-86
2022/12/26 16:07:53;;;;;;;3.77;3.47;;;10.50;99.90;;;;;;5059456;28;20210;-89
2022/12/26 16:10:25;;;;;;;3.80;3.50;;;10.50;99.90;;;;;;5066259;28;20216;-88
2022/12/26 16:13:12;;;;;;;3.60;3.30;;;10.50;99.90;;;;;;5069935;28;20678;-86
2022/12/26 16:15:51;;;;;;;3.80;3.40;;;10.50;99.90;;;;;;5072312;28;20199;-89
2022/12/26 16:18:20;;;;;;;3.87;3.47;;;10.40;99.90;;;;;;5060784;28;20195;-87
2022/12/26 16:23:37;;;;;;;4.43;3.13;;;10.60;99.90;;;;;;5060296;28;20196;-87
2022/12/26 16:26:03;;;;;;;4.93;3.00;;;10.60;99.90;;;;;;5061542;28;20168;-87
2022/12/26 16:28:42;;;;;;;2.80;2.57;;;10.60;99.90;;;;;;5069919;28;20188;-86
2022/12/26 16:31:13;;;;;;;3.43;3.13;;;10.70;99.90;;;;;;5067196;28;20276;-84
2022/12/26 16:33:41;;;;;;;3.37;3.07;;;10.60;99.90;;;;;;5062934;28;20194;-88
2022/12/26 16:36:09;;;;;;;3.03;2.83;;;10.70;99.90;;;;;;5063858;28;20184;-85
2022/12/26 16:38:36;;;;;;;3.80;3.43;;;10.50;99.90;;;;;;5064818;28;20230;-86
2022/12/26 16:41:17;;;;;;;3.43;3.13;;;10.50;99.90;;;;;;5068969;28;20214;-88
2022/12/26 16:43:43;;;;;;;3.40;3.10;;;10.50;99.90;;;;;;5058116;28;20207;-87
2022/12/26 16:46:11;;;;;;;3.00;2.80;;;10.50;99.90;;;;;;5051862;28;20224;-87
2022/12/26 16:48:38;;;;;;;2.87;2.67;;;10.50;99.90;;;;;;5050653;28;20189;-86
2022/12/26 16:51:26;;;;;;;3.20;2.90;;;10.40;99.90;;;;;;5047686;28;20201;-86
2022/12/26 16:53:52;;;;;;;2.70;2.50;;;10.50;99.90;;;;;;5047386;28;20188;-86
2022/12/26 16:56:31;;;;;;;2.37;2.17;;;10.50;99.90;;;;;;5059574;28;20555;-88
2022/12/26 16:59:10;;;;;;;2.40;2.20;;;10.50;99.90;;;;;;5034373;28;20196;-88
2022/12/26 17:01:36;;;;;;;2.60;2.40;;;10.40;99.90;;;;;;5057808;28;20191;-89
2022/12/26 17:04:15;;;;;;;2.63;2.40;;;10.50;99.90;;;;;;5041062;28;20680;-86
2022/12/26 17:07:06;;;;;;;2.70;2.50;;;10.50;99.90;;;;;;5058050;28;20215;-89
2022/12/26 17:09:43;;;;;;;2.90;2.63;;;10.50;99.90;;;;;;5072722;28;20237;-90
2022/12/26 17:12:26;;;;;;;3.20;2.60;;;10.40;99.90;;;;;;5078747;28;20188;-90
2022/12/26 17:14:54;;;;;;;3.10;2.80;;;10.50;99.90;;;;;;5062764;28;20244;-90
2022/12/26 17:17:23;;;;;;;3.03;2.80;;;10.50;99.90;;;;;;5062666;28;20189;-87
2022/12/26 17:19:53;;;;;;;3.60;3.30;;;10.40;99.90;;;;;;5057568;28;20227;-88
2022/12/26 17:22:31;;;;;;;3.73;3.43;;;10.30;99.90;;;;;;5046824;28;20191;-86
2022/12/26 17:25:20;;;;;;;6.40;3.77;;;10.30;99.90;;;;;;5061876;28;20201;-86
2022/12/26 17:28:08;;;;;;;3.93;3.63;;;10.40;99.90;;;;;;5066110;28;20198;-87